Davis Vantage Pro 2 Aktiv Plus 6163EU 24h Lftung - Paderborn Riemeke
Wetterdaten: aktuell Donnerstag, 21.03.2019 05:59
Datum Zeit Temp. I. Temp. A. Feuchte I. Feuchte A. Luftdruck Regen Wind Richtung Richtung Sonnenschein ET UV Solar Taupunkt Windchill Windben
21.03.2019 05:59 21,9 C 6,6 C 50 % 80 % 1034,4 hPa 0,0 l/m 0,0 km/h (0 Bft) N 0 0 min 0,025 mm 0,0 UV-I 0 W/m 3,4 C 6,6 C 0,0 km/h (0 Bft)
21.03.2019 04:59 22,1 C 8,1 C 50 % 76 % 1034,2 hPa 0,0 l/m 0,0 km/h (0 Bft) N 0 0 min 0,025 mm 0,0 UV-I 0 W/m 4,1 C 8,1 C 0,0 km/h (0 Bft)
21.03.2019 03:59 22,2 C 8,2 C 51 % 75 % 1034,2 hPa 0,0 l/m 0,0 km/h (0 Bft) N 0 0 min 0,025 mm 0,0 UV-I 0 W/m 4,0 C 8,2 C 0,0 km/h (0 Bft)
21.03.2019 02:59 22,3 C 8,7 C 51 % 76 % 1034,3 hPa 0,0 l/m 0,0 km/h (0 Bft) N 0 0 min 0,025 mm 0,0 UV-I 0 W/m 4,7 C 8,7 C 0,0 km/h (0 Bft)
21.03.2019 01:59 22,4 C 9,1 C 51 % 72 % 1034,8 hPa 0,0 l/m 0,0 km/h (0 Bft) N 0 0 min 0,025 mm 0,0 UV-I 0 W/m 4,3 C 9,1 C 0,0 km/h (0 Bft)
21.03.2019 00:59 22,6 C 8,1 C 51 % 76 % 1034,9 hPa 0,0 l/m 0,0 km/h (0 Bft) N 0 0 min 0,025 mm 0,0 UV-I 0 W/m 4,1 C 8,1 C 0,0 km/h (0 Bft)
20.03.2019 23:59 22,8 C 8,2 C 50 % 75 % 1034,8 hPa 0,0 l/m 0,0 km/h (0 Bft) N 0 0 min 0,025 mm 0,0 UV-I 0 W/m 4,0 C 8,2 C 0,0 km/h (0 Bft)
20.03.2019 22:59 22,9 C 9,6 C 51 % 70 % 1034,5 hPa 0,0 l/m 1,6 km/h (1 Bft) W-SW 247 0 min 0,025 mm 0,0 UV-I 0 W/m 4,4 C 9,6 C 3,2 km/h (1 Bft)
20.03.2019 21:59 22,8 C 10,4 C 51 % 68 % 1034,4 hPa 0,0 l/m 1,6 km/h (1 Bft) W 270 0 min 0,025 mm 0,0 UV-I 0 W/m 4,8 C 10,4 C 1,6 km/h (1 Bft)
20.03.2019 20:59 22,7 C 10,9 C 51 % 67 % 1034,7 hPa 0,0 l/m 0,0 km/h (0 Bft) N 0 0 min 0,025 mm 0,0 UV-I 0 W/m 5,0 C 10,9 C 0,0 km/h (0 Bft)
20.03.2019 19:59 22,7 C 11,2 C 50 % 66 % 1034,4 hPa 0,0 l/m 1,6 km/h (1 Bft) W-SW 247 0 min 0,025 mm 0,0 UV-I 0 W/m 5,1 C 11,2 C 3,2 km/h (1 Bft)
20.03.2019 18:59 22,7 C 11,6 C 49 % 66 % 1033,9 hPa 0,0 l/m 4,8 km/h (1 Bft) W 270 0 min 0,051 mm 0,0 UV-I 0 W/m 5,5 C 11,6 C 11,3 km/h (2 Bft)
20.03.2019 17:59 22,8 C 12,0 C 49 % 64 % 1033,8 hPa 0,0 l/m 4,8 km/h (1 Bft) W 270 0 min 0,102 mm 0,0 UV-I 18 W/m 5,4 C 12,0 C 6,4 km/h (2 Bft)
20.03.2019 16:59 22,8 C 12,6 C 48 % 61 % 1033,4 hPa 0,0 l/m 9,7 km/h (2 Bft) W 270 5 min 0,102 mm 0,0 UV-I 120 W/m 5,3 C 10,6 C 14,5 km/h (3 Bft)
20.03.2019 15:59 22,8 C 12,7 C 48 % 61 % 1033,8 hPa 0,0 l/m 8,0 km/h (2 Bft) W-NW 292 0 min 0,127 mm 0,6 UV-I 172 W/m 5,4 C 11,7 C 12,9 km/h (3 Bft)
20.03.2019 14:59 23,0 C 12,6 C 48 % 58 % 1033,9 hPa 0,0 l/m 8,0 km/h (2 Bft) W 270 0 min 0,254 mm 0,6 UV-I 134 W/m 4,6 C 11,6 C 12,9 km/h (3 Bft)
20.03.2019 13:59 23,2 C 13,6 C 48 % 52 % 1033,8 hPa 0,0 l/m 9,7 km/h (2 Bft) W 270 25 min 0,330 mm 1,1 UV-I 220 W/m 3,9 C 11,7 C 16,1 km/h (3 Bft)
20.03.2019 12:59 23,2 C 15,3 C 49 % 47 % 1033,8 hPa 0,0 l/m 8,0 km/h (2 Bft) W-NW 292 58 min 0,254 mm 2,7 UV-I 737 W/m 4,1 C 14,4 C 12,9 km/h (3 Bft)
20.03.2019 11:59 22,6 C 13,3 C 49 % 51 % 1033,6 hPa 0,0 l/m 8,0 km/h (2 Bft) W 270 43 min 0,229 mm 2,2 UV-I 457 W/m 3,4 C 12,3 C 14,5 km/h (3 Bft)
20.03.2019 10:59 22,2 C 12,1 C 49 % 52 % 1033,7 hPa 0,0 l/m 9,7 km/h (2 Bft) W-NW 292 56 min 0,152 mm 1,4 UV-I 295 W/m 2,5 C 10,1 C 16,1 km/h (3 Bft)
20.03.2019 09:59 21,8 C 10,4 C 49 % 55 % 1033,9 hPa 0,0 l/m 6,4 km/h (2 Bft) W-SW 247 47 min 0,102 mm 1,4 UV-I 417 W/m 1,8 C 10,4 C 11,3 km/h (2 Bft)
20.03.2019 08:59 21,4 C 8,0 C 49 % 63 % 1033,4 hPa 0,0 l/m 4,8 km/h (1 Bft) SW 225 48 min 0,025 mm 0,7 UV-I 278 W/m 1,4 C 8,0 C 6,4 km/h (2 Bft)
20.03.2019 07:59 21,3 C 4,4 C 49 % 76 % 1033,0 hPa 0,0 l/m 0,0 km/h (0 Bft) SO 135 0 min 0,000 mm 0,0 UV-I 114 W/m 0,5 C 4,4 C 1,6 km/h (1 Bft)
20.03.2019 06:59 21,2 C 1,4 C 49 % 82 % 1032,6 hPa 0,0 l/m 0,0 km/h (0 Bft) N 0 0 min 0,000 mm 0,0 UV-I 21 W/m -1,3 C 1,4 C 0,0 km/h (0 Bft)
20.03.2019 06:00 21,2 C 1,7 C 49 % 79 % 1032,2 hPa 0,0 l/m 0,0 km/h (0 Bft) N 0 0 min 0,000 mm 0,0 UV-I 0 W/m -1,5 C 1,7 C 0,0 km/h (0 Bft)
_ Min-Zeit 07:03 06:14 13:28 12:48 06:02 - 06:00 - - - - - - 06:03 06:14 06:00
Minimum _ 21,1 C 1,3 C 48 % 46 % 1032,1 hPa - 0,0 km/h (0 Bft) - - - - - - -1,8 C 1,3 C 0,0 km/h (0 Bft)
_ Max-Zeit 13:21 13:20 20:19 06:56 00:49 06:00 14:12 - - 08:12 13:00 12:57 13:17 17:57 13:09 13:16
Maximum _ 23,4 C 15,6 C 51 % 83 % 1035,0 hPa 0,0 l/m 16,1 km/h
W-NW (3 Bft)
- - 1 min 0,330 mm 2,7 UV-I 765 W/m 5,6 C 15,3 C 24,1 km/h
W-NW (4 Bft)
Durchschnitt _ 22,3 C 9,2 C 50 % 67 % 1033,8 hPa #0,0 l/m 3,0 km/h (1 Bft) N - #0 min. #0,150 mm 0,0 UV-I 0 W/m 3,3 C 8,9 C 5,4 km/h (1 Bft)
© Andreas P. Gnther